createdAt,value
2018-09-02T00:00:37.565Z,62.92
2018-09-02T00:03:06.833Z,64.23
2018-09-02T00:05:36.208Z,64.01
2018-09-02T00:08:07.440Z,63.59
2018-09-02T00:10:36.815Z,63.61
2018-09-02T00:13:06.077Z,63.49
2018-09-02T00:15:35.292Z,63.62
2018-09-02T00:18:04.479Z,62.87
2018-09-02T00:20:33.703Z,62.91
2018-09-02T00:23:04.642Z,63.63
2018-09-02T00:25:33.596Z,64.37
2018-09-02T00:28:02.569Z,63.72
2018-09-02T00:30:31.485Z,63.49
2018-09-02T00:33:00.467Z,63.46
2018-09-02T00:35:29.359Z,63.29
2018-09-02T00:37:58.286Z,62.86
2018-09-02T00:40:27.225Z,62.62
2018-09-02T00:42:56.118Z,63.02
2018-09-02T00:45:25.071Z,63.28
2018-09-02T00:47:55.087Z,63.09
2018-09-02T00:50:24.038Z,63.08
2018-09-02T00:52:52.977Z,63.67
2018-09-02T00:55:22.169Z,63.64
2018-09-02T00:57:51.154Z,63.68
2018-09-02T01:00:20.064Z,63.68
2018-09-02T01:02:49.041Z,63.54
2018-09-02T01:05:17.913Z,63.65
2018-09-02T01:07:46.868Z,64.54
2018-09-02T01:10:15.770Z,64.47
2018-09-02T01:12:44.684Z,64.92
2018-09-02T01:15:13.658Z,64.77
2018-09-02T01:17:42.664Z,64.68
2018-09-02T01:20:11.688Z,65.40
2018-09-02T01:22:40.604Z,66.40
2018-09-02T01:25:09.560Z,65.39
2018-09-02T01:27:38.495Z,65.17
2018-09-02T01:30:07.472Z,64.89
2018-09-02T01:32:36.398Z,64.75
2018-09-02T01:35:05.332Z,65.71
2018-09-02T01:37:34.224Z,66.31
2018-09-02T01:40:03.202Z,66.05
2018-09-02T01:42:32.096Z,65.63
2018-09-02T01:45:06.662Z,66.11
2018-09-02T01:47:36.518Z,66.49
2018-09-02T01:50:05.824Z,66.44
2018-09-02T01:52:34.732Z,66.94
2018-09-02T01:55:03.672Z,65.84
2018-09-02T01:57:32.632Z,65.83
2018-09-02T02:00:01.544Z,66.23
2018-09-02T02:02:30.468Z,67.22
2018-09-02T02:04:59.360Z,67.74
2018-09-02T02:07:28.248Z,67.33
2018-09-02T02:09:57.160Z,66.99
2018-09-02T02:12:26.066Z,66.49
2018-09-02T02:14:54.978Z,67.89
2018-09-02T02:17:23.996Z,67.23
2018-09-02T02:19:52.988Z,67.08
2018-09-02T02:22:21.886Z,67.49
2018-09-02T02:24:50.776Z,67.38
2018-09-02T02:27:19.766Z,67.14
2018-09-02T02:29:48.748Z,67.68
2018-09-02T02:32:17.685Z,67.77
2018-09-02T02:34:46.577Z,67.65
2018-09-02T02:37:15.680Z,68.26
2018-09-02T02:39:44.600Z,68.15
2018-09-02T02:42:13.532Z,69.62
2018-09-02T02:44:42.506Z,69.29
2018-09-02T02:47:11.422Z,69.10
2018-09-02T02:49:40.324Z,69.52
2018-09-02T02:52:09.360Z,69.60
2018-09-02T02:54:38.244Z,69.56
2018-09-02T02:57:07.264Z,69.36
2018-09-02T02:59:36.445Z,69.64
2018-09-02T03:02:05.573Z,68.98
2018-09-02T03:04:34.676Z,70.02
2018-09-02T03:07:03.620Z,70.87
2018-09-02T03:09:32.525Z,70.74
2018-09-02T03:12:01.443Z,69.89
2018-09-02T03:14:30.341Z,70.17
2018-09-02T03:16:59.236Z,70.49
2018-09-02T03:19:28.143Z,71.32
2018-09-02T03:21:57.073Z,70.80
2018-09-02T03:24:25.980Z,70.56
2018-09-02T03:26:54.947Z,71.78
2018-09-02T03:29:23.870Z,70.41
2018-09-02T03:31:52.739Z,70.37
2018-09-02T03:34:21.673Z,70.10
2018-09-02T03:36:50.610Z,70.45
2018-09-02T03:39:19.645Z,70.24
2018-09-02T03:41:48.589Z,71.24
2018-09-02T03:44:17.514Z,71.33
2018-09-02T03:46:46.407Z,71.26
2018-09-02T03:49:15.298Z,72.23
2018-09-02T03:51:44.218Z,72.33
2018-09-02T03:54:13.112Z,72.24
2018-09-02T03:56:44.090Z,73.66
2018-09-02T03:59:12.977Z,72.84
2018-09-02T04:01:41.915Z,73.25
2018-09-02T04:04:10.845Z,72.88
2018-09-02T04:06:39.746Z,72.66
2018-09-02T04:09:10.238Z,73.16
2018-09-02T04:11:39.319Z,72.63
2018-09-02T04:14:08.286Z,72.86
2018-09-02T04:16:37.179Z,73.30
2018-09-02T04:19:06.169Z,73.80
2018-09-02T04:21:35.167Z,73.25
2018-09-02T04:24:04.083Z,73.49
2018-09-02T04:26:33.085Z,74.12
2018-09-02T04:29:01.976Z,73.72
2018-09-02T04:31:30.896Z,74.82
2018-09-02T04:33:59.813Z,75.46
2018-09-02T04:36:28.711Z,74.81
2018-09-02T04:38:57.611Z,75.62
2018-09-02T04:41:26.599Z,74.71
2018-09-02T04:43:55.492Z,75.10
2018-09-02T04:46:24.445Z,75.53
2018-09-02T04:48:53.353Z,75.08
2018-09-02T04:51:22.309Z,75.41
2018-09-02T04:53:51.235Z,75.46
2018-09-02T04:56:20.148Z,75.11
2018-09-02T04:58:49.066Z,75.40
2018-09-02T05:01:18.005Z,76.14
2018-09-02T05:03:46.997Z,75.88
2018-09-02T05:06:15.914Z,75.82
2018-09-02T05:08:44.815Z,75.43
2018-09-02T05:11:13.733Z,76.19
2018-09-02T05:13:43.743Z,75.69
2018-09-02T05:16:12.655Z,76.12
2018-09-02T05:18:41.597Z,76.26
2018-09-02T05:21:10.493Z,76.19
2018-09-02T05:23:39.395Z,76.09
2018-09-02T05:26:08.379Z,76.50
2018-09-02T05:28:37.289Z,77.24
2018-09-02T05:31:06.331Z,76.96
2018-09-02T05:33:35.283Z,77.52
2018-09-02T05:36:04.235Z,77.59
2018-09-02T05:38:34.249Z,76.85
2018-09-02T05:41:03.135Z,76.20
2018-09-02T05:43:32.055Z,76.10
2018-09-02T05:46:00.995Z,76.64
2018-09-02T05:48:29.940Z,76.82
2018-09-02T05:50:58.906Z,76.62
2018-09-02T05:53:27.858Z,77.06
2018-09-02T05:55:56.781Z,76.67
2018-09-02T05:58:25.702Z,76.20
2018-09-02T06:00:54.611Z,76.70
2018-09-02T06:03:23.641Z,75.76
2018-09-02T06:05:52.950Z,76.42
2018-09-02T06:08:22.110Z,76.25
2018-09-02T06:10:51.353Z,76.63
2018-09-02T06:13:20.707Z,76.07
2018-09-02T06:15:50.373Z,76.32
2018-09-02T06:18:19.617Z,76.52
2018-09-02T06:20:48.905Z,76.44
2018-09-02T06:23:18.148Z,76.15
2018-09-02T06:25:47.358Z,76.01
2018-09-02T06:28:16.575Z,76.61
2018-09-02T06:30:45.826Z,76.83
2018-09-02T06:33:15.110Z,76.14
2018-09-02T06:35:44.259Z,76.69
2018-09-02T06:38:18.829Z,75.88
2018-09-02T06:40:47.781Z,75.22
2018-09-02T06:43:16.711Z,75.22
2018-09-02T06:45:45.678Z,74.67
2018-09-02T06:48:17.711Z,74.40
2018-09-02T06:50:47.133Z,74.12
2018-09-02T06:53:16.577Z,74.29
2018-09-02T06:55:45.771Z,74.46
2018-09-02T06:58:14.839Z,74.44
2018-09-02T07:00:43.817Z,74.36
2018-09-02T07:03:12.728Z,74.19
2018-09-02T07:05:42.530Z,73.46
2018-09-02T07:08:12.543Z,72.78
2018-09-02T07:10:42.544Z,71.25
2018-09-02T07:13:11.523Z,70.03
2018-09-02T07:15:40.467Z,68.78
2018-09-02T07:18:09.606Z,67.95
2018-09-02T07:20:38.762Z,67.00
2018-09-02T07:23:07.667Z,65.66
2018-09-02T07:25:36.604Z,64.88
2018-09-02T07:28:05.544Z,64.78
2018-09-02T07:30:34.498Z,65.68
2018-09-02T07:33:03.630Z,65.37
2018-09-02T07:35:32.656Z,65.48
2018-09-02T07:38:01.616Z,65.64
2018-09-02T07:40:30.672Z,65.70
2018-09-02T07:42:59.576Z,65.26
2018-09-02T07:45:28.519Z,65.02
2018-09-02T07:47:57.489Z,64.89
2018-09-02T07:50:26.344Z,64.46
2018-09-02T07:52:55.324Z,64.34
2018-09-02T07:55:24.250Z,64.56
2018-09-02T07:57:53.292Z,64.27
2018-09-02T08:00:22.216Z,64.93
2018-09-02T08:02:51.387Z,66.10
2018-09-02T08:05:20.405Z,65.49
2018-09-02T08:07:49.498Z,64.56
2018-09-02T08:10:18.414Z,64.57
2018-09-02T08:12:47.622Z,63.59
2018-09-02T08:15:16.343Z,63.01
2018-09-02T08:17:45.316Z,63.27
2018-09-02T08:20:14.271Z,63.90
2018-09-02T08:22:43.310Z,63.64
2018-09-02T08:25:12.172Z,63.34
2018-09-02T08:27:41.178Z,62.28
2018-09-02T08:30:10.120Z,63.54
2018-09-02T08:32:39.024Z,63.97
2018-09-02T08:35:08.062Z,64.03
2018-09-02T08:37:36.996Z,64.21
2018-09-02T08:40:06.188Z,64.52
2018-09-02T08:42:35.196Z,64.02
2018-09-02T08:45:04.108Z,63.71
2018-09-02T08:47:33.018Z,64.60
2018-09-02T08:50:01.950Z,65.10
2018-09-02T08:52:30.842Z,64.67
2018-09-02T08:55:00.195Z,64.05
2018-09-02T08:57:29.170Z,64.28
2018-09-02T08:59:59.211Z,64.42
2018-09-02T09:02:28.472Z,62.67
2018-09-02T09:04:57.400Z,62.74
2018-09-02T09:07:27.413Z,63.66
2018-09-02T09:09:56.358Z,64.52
2018-09-02T09:12:25.274Z,65.45
2018-09-02T09:14:54.472Z,65.49
2018-09-02T09:17:23.416Z,65.63
2018-09-02T09:19:52.318Z,65.49
2018-09-02T09:22:21.242Z,65.07
2018-09-02T09:24:50.327Z,64.25
2018-09-02T09:27:19.250Z,64.65
2018-09-02T09:29:48.258Z,63.84
2018-09-02T09:32:23.786Z,64.09
2018-09-02T09:34:52.756Z,64.51
2018-09-02T09:37:21.741Z,64.27
2018-09-02T09:39:50.676Z,64.51
2018-09-02T09:42:19.572Z,64.48
2018-09-02T09:44:48.526Z,64.24
2018-09-02T09:47:17.499Z,64.25
2018-09-02T09:49:46.461Z,64.28
2018-09-02T09:52:15.442Z,63.82
2018-09-02T09:54:44.917Z,63.43
2018-09-02T09:57:13.847Z,63.40
2018-09-02T09:59:42.890Z,62.96
2018-09-02T10:02:11.874Z,61.63
2018-09-02T10:04:40.812Z,62.35
2018-09-02T10:07:09.742Z,62.29
2018-09-02T10:09:38.785Z,62.23
2018-09-02T10:12:07.748Z,61.85
2018-09-02T10:14:36.744Z,60.75
2018-09-02T10:17:05.807Z,60.67
2018-09-02T10:19:34.643Z,61.14
2018-09-02T10:22:03.556Z,61.26
2018-09-02T10:24:32.568Z,61.19
2018-09-02T10:27:01.449Z,60.95
2018-09-02T10:29:30.388Z,60.55
2018-09-02T10:31:59.273Z,59.21
2018-09-02T10:34:28.208Z,59.65
2018-09-02T10:36:57.120Z,59.22
2018-09-02T10:39:26.038Z,59.17
2018-09-02T10:41:55.032Z,58.90
2018-09-02T10:44:24.030Z,58.93
2018-09-02T10:46:53.016Z,59.65
2018-09-02T10:49:21.980Z,59.51
2018-09-02T10:51:50.910Z,59.74
2018-09-02T10:54:19.830Z,59.61
2018-09-02T10:56:48.728Z,59.90
2018-09-02T10:59:17.668Z,60.02
2018-09-02T11:01:46.580Z,59.13
2018-09-02T11:04:15.573Z,59.83
2018-09-02T11:06:44.454Z,57.10
2018-09-02T11:09:13.394Z,57.76
2018-09-02T11:11:42.369Z,58.11
2018-09-02T11:14:11.280Z,58.11
2018-09-02T11:16:40.250Z,57.92
2018-09-02T11:19:09.446Z,58.37
2018-09-02T11:21:38.378Z,58.92
2018-09-02T11:24:07.511Z,58.25
2018-09-02T11:26:36.412Z,56.99
2018-09-02T11:29:05.496Z,57.59
2018-09-02T11:31:34.407Z,57.88
2018-09-02T11:34:03.396Z,57.74
2018-09-02T11:36:32.328Z,57.12
2018-09-02T11:39:01.307Z,56.35
2018-09-02T11:41:30.248Z,57.09
2018-09-02T11:43:59.240Z,56.43
2018-09-02T11:46:28.170Z,55.42
2018-09-02T11:48:57.125Z,55.20
2018-09-02T11:51:26.087Z,52.00
2018-09-02T11:53:55.061Z,50.58
2018-09-02T11:56:23.946Z,53.25
2018-09-02T11:58:52.840Z,51.53
2018-09-02T12:01:21.800Z,52.69
2018-09-02T12:03:51.015Z,51.55
2018-09-02T12:06:19.940Z,51.70
2018-09-02T12:08:48.859Z,51.56
2018-09-02T12:11:17.725Z,51.39
2018-09-02T12:13:46.659Z,49.26
2018-09-02T12:16:15.587Z,50.03
2018-09-02T12:18:44.543Z,50.51
2018-09-02T12:21:13.522Z,51.10
2018-09-02T12:23:42.494Z,49.20
2018-09-02T12:26:11.582Z,47.00
2018-09-02T12:28:41.696Z,47.14
2018-09-02T12:31:10.648Z,48.30
2018-09-02T12:33:39.617Z,49.27
2018-09-02T12:36:09.175Z,48.78
2018-09-02T12:38:38.218Z,48.77
2018-09-02T12:41:07.247Z,48.62
2018-09-02T12:43:36.266Z,49.02
2018-09-02T12:46:05.212Z,48.89
2018-09-02T12:48:34.170Z,48.17
2018-09-02T12:51:03.116Z,47.44
2018-09-02T12:53:32.104Z,47.57
2018-09-02T12:56:01.057Z,47.50
2018-09-02T12:58:29.957Z,47.45
2018-09-02T13:00:58.917Z,47.42
2018-09-02T13:03:27.844Z,47.86
2018-09-02T13:05:56.838Z,47.27
2018-09-02T13:08:25.875Z,48.25
2018-09-02T13:10:54.859Z,47.79
2018-09-02T13:13:23.841Z,47.89
2018-09-02T13:15:52.818Z,48.21
2018-09-02T13:18:21.804Z,48.28
2018-09-02T13:20:50.743Z,48.57
2018-09-02T13:23:19.682Z,47.83
2018-09-02T13:25:48.655Z,47.60
2018-09-02T13:28:17.572Z,46.71
2018-09-02T13:30:47.526Z,46.72
2018-09-02T13:33:16.421Z,45.58
2018-09-02T13:35:45.387Z,46.35
2018-09-02T13:38:14.387Z,47.11
2018-09-02T13:40:43.614Z,46.96
2018-09-02T13:43:12.637Z,47.71
2018-09-02T13:45:45.231Z,48.11
2018-09-02T13:48:14.218Z,51.78
2018-09-02T13:50:43.259Z,48.55
2018-09-02T13:53:12.228Z,47.05
2018-09-02T13:55:41.157Z,46.05
2018-09-02T13:58:10.105Z,46.29
2018-09-02T14:00:39.021Z,43.51
2018-09-02T14:03:08.031Z,43.35
2018-09-02T14:05:36.915Z,42.65
2018-09-02T14:08:05.940Z,42.65
2018-09-02T14:10:35.580Z,41.80
2018-09-02T14:13:04.559Z,42.32
2018-09-02T14:15:33.819Z,41.71
2018-09-02T14:18:02.842Z,41.04
2018-09-02T14:20:31.733Z,42.29
2018-09-02T14:23:00.769Z,42.28
2018-09-02T14:25:29.660Z,41.16
2018-09-02T14:27:58.593Z,42.10
2018-09-02T14:30:27.527Z,41.36
2018-09-02T14:32:56.526Z,41.33
2018-09-02T14:35:25.614Z,41.58
2018-09-02T14:37:54.637Z,41.54
2018-09-02T14:40:23.655Z,40.67
2018-09-02T14:42:52.669Z,40.26
2018-09-02T14:45:21.635Z,40.54
2018-09-02T14:47:50.572Z,40.34
2018-09-02T14:50:19.873Z,40.39
2018-09-02T14:52:48.811Z,40.51
2018-09-02T14:55:17.737Z,41.06
2018-09-02T14:57:46.673Z,41.40
2018-09-02T15:00:15.595Z,41.23
2018-09-02T15:02:44.531Z,41.32
2018-09-02T15:05:14.550Z,39.93
2018-09-02T15:07:43.523Z,39.52
2018-09-02T15:10:12.440Z,40.51
2018-09-02T15:12:41.349Z,40.79
2018-09-02T15:15:10.446Z,41.06
2018-09-02T15:17:39.407Z,41.60
2018-09-02T15:20:08.387Z,41.71
2018-09-02T15:22:37.335Z,41.90
2018-09-02T15:25:06.337Z,42.09
2018-09-02T15:27:35.413Z,42.53
2018-09-02T15:30:04.653Z,41.83
2018-09-02T15:32:33.557Z,41.96
2018-09-02T15:35:02.659Z,41.94
2018-09-02T15:37:31.547Z,41.87
2018-09-02T15:40:00.516Z,42.04
2018-09-02T15:42:29.487Z,42.44
2018-09-02T15:44:58.570Z,41.72
2018-09-02T15:47:27.445Z,41.76
2018-09-02T15:49:56.355Z,42.06
2018-09-02T15:52:25.398Z,41.45
2018-09-02T15:54:54.239Z,41.92
2018-09-02T15:57:23.323Z,42.52
2018-09-02T15:59:52.339Z,42.32
2018-09-02T16:02:21.219Z,42.21
2018-09-02T16:04:50.183Z,42.33
2018-09-02T16:07:19.248Z,42.61
2018-09-02T16:09:49.211Z,42.37
2018-09-02T16:12:18.208Z,42.41
2018-09-02T16:14:47.231Z,41.95
2018-09-02T16:17:16.174Z,41.66
2018-09-02T16:19:45.079Z,41.52
2018-09-02T16:22:14.143Z,41.13
2018-09-02T16:24:43.067Z,41.73
2018-09-02T16:27:12.124Z,41.46
2018-09-02T16:29:41.046Z,41.64
2018-09-02T16:32:10.168Z,42.38
2018-09-02T16:34:39.036Z,42.13
2018-09-02T16:37:08.951Z,41.90
2018-09-02T16:39:38.309Z,41.87
2018-09-02T16:42:07.225Z,42.55
2018-09-02T16:44:36.133Z,43.00
2018-09-02T16:47:05.317Z,43.50
2018-09-02T16:49:34.231Z,43.41
2018-09-02T16:52:03.252Z,43.29
2018-09-02T16:54:32.261Z,43.14
2018-09-02T16:57:01.225Z,42.43
2018-09-02T16:59:30.323Z,43.23
2018-09-02T17:01:59.210Z,44.03
2018-09-02T17:04:30.648Z,46.38
2018-09-02T17:06:59.537Z,47.93
2018-09-02T17:09:28.428Z,49.06
2018-09-02T17:11:57.421Z,49.22
2018-09-02T17:14:26.330Z,49.79
2018-09-02T17:16:55.283Z,49.59
2018-09-02T17:19:26.550Z,50.38
2018-09-02T17:21:55.455Z,50.43
2018-09-02T17:24:24.390Z,50.25
2018-09-02T17:26:53.295Z,50.69
2018-09-02T17:29:22.231Z,50.52
2018-09-02T17:31:51.131Z,50.48
2018-09-02T17:34:20.095Z,51.11
2018-09-02T17:36:48.972Z,51.27
2018-09-02T17:39:17.847Z,51.05
2018-09-02T17:41:46.901Z,51.85
2018-09-02T17:44:15.787Z,52.41
2018-09-02T17:46:44.733Z,52.40
2018-09-02T17:49:13.666Z,52.92
2018-09-02T17:51:42.568Z,53.16
2018-09-02T17:54:11.827Z,53.71
2018-09-02T17:56:40.753Z,53.89
2018-09-02T17:59:09.741Z,54.45
2018-09-02T18:01:38.717Z,54.33
2018-09-02T18:04:07.647Z,54.50
2018-09-02T18:06:36.643Z,55.16
2018-09-02T18:09:08.649Z,55.31
2018-09-02T18:11:40.129Z,55.31
2018-09-02T18:14:15.319Z,54.91
2018-09-02T18:16:44.321Z,55.26
2018-09-02T18:19:13.321Z,55.01
2018-09-02T18:21:42.354Z,55.61
2018-09-02T18:24:24.801Z,55.60
2018-09-02T18:26:55.123Z,56.10
2018-09-02T18:29:24.088Z,55.55
2018-09-02T18:31:52.991Z,55.82
2018-09-02T18:34:42.794Z,56.08
2018-09-02T18:37:12.895Z,55.81
2018-09-02T18:39:45.750Z,56.06
2018-09-02T18:42:14.569Z,56.27
2018-09-02T18:44:43.535Z,56.53
2018-09-02T18:47:12.467Z,56.63
2018-09-02T18:49:56.077Z,56.21
2018-09-02T18:52:40.593Z,56.46
2018-09-02T18:55:10.337Z,57.16
2018-09-02T18:57:39.368Z,56.88
2018-09-02T19:00:15.757Z,57.25
2018-09-02T19:02:44.669Z,57.23
2018-09-02T19:05:13.871Z,57.11
2018-09-02T19:07:43.103Z,57.31
2018-09-02T19:10:18.077Z,57.46
2018-09-02T19:12:47.256Z,58.07
2018-09-02T19:15:17.372Z,58.03
2018-09-02T19:17:46.349Z,58.29
2018-09-02T19:20:15.346Z,58.44
2018-09-02T19:22:45.240Z,58.53
2018-09-02T19:25:28.590Z,58.52
2018-09-02T19:28:02.251Z,58.58
2018-09-02T19:30:31.680Z,58.50
2018-09-02T19:33:00.928Z,58.62
2018-09-02T19:35:30.042Z,58.77
2018-09-02T19:37:59.310Z,59.09
2018-09-02T19:40:28.882Z,59.70
2018-09-02T19:42:57.883Z,59.76
2018-09-02T19:45:27.143Z,60.15
2018-09-02T19:47:56.290Z,59.44
2018-09-02T19:50:25.257Z,60.13
2018-09-02T19:52:54.490Z,60.39
2018-09-02T19:55:23.470Z,60.24
2018-09-02T19:57:52.531Z,60.09
2018-09-02T20:00:21.456Z,60.49
2018-09-02T20:02:50.417Z,60.74
2018-09-02T20:05:19.504Z,60.14
2018-09-02T20:07:48.588Z,61.07
2018-09-02T20:10:17.571Z,60.86
2018-09-02T20:12:46.571Z,61.35
2018-09-02T20:15:15.487Z,61.26
2018-09-02T20:17:58.421Z,61.51
2018-09-02T20:34:15.137Z,62.00
2018-09-02T20:36:44.553Z,62.29
2018-09-02T20:39:13.893Z,62.31
2018-09-02T20:41:43.361Z,62.56
2018-09-02T20:44:19.583Z,62.73
2018-09-02T20:47:00.442Z,62.78
2018-09-02T20:49:35.979Z,62.69
2018-09-02T20:54:56.628Z,63.18
2018-09-02T20:57:32.868Z,62.83
2018-09-02T21:00:04.371Z,62.51
2018-09-02T21:02:34.592Z,62.62
2018-09-02T21:05:04.132Z,62.80
2018-09-02T21:07:34.218Z,62.99
2018-09-02T21:10:03.934Z,63.19
2018-09-02T21:12:33.482Z,63.46
2018-09-02T21:15:08.804Z,63.25
2018-09-02T21:17:39.092Z,63.34
2018-09-02T21:20:09.816Z,63.37
2018-09-02T21:22:39.742Z,63.57
2018-09-02T21:25:09.727Z,63.56
2018-09-02T21:27:42.949Z,63.62
2018-09-02T21:30:13.307Z,63.71
2018-09-02T21:32:44.424Z,64.23
2018-09-02T21:35:15.146Z,64.04
2018-09-02T21:37:48.190Z,64.08
2018-09-02T21:40:20.592Z,64.16
2018-09-02T21:42:55.830Z,64.03
2018-09-02T21:45:25.730Z,64.45
2018-09-02T21:47:56.383Z,64.43
2018-09-02T21:50:26.094Z,64.60
2018-09-02T21:52:55.828Z,64.42
2018-09-02T21:55:26.377Z,65.01
2018-09-02T21:57:55.830Z,65.97
2018-09-02T22:00:25.454Z,66.21
2018-09-02T22:04:25.100Z,66.23
2018-09-02T22:06:54.512Z,65.91
2018-09-02T22:09:24.853Z,66.14
2018-09-02T22:11:55.972Z,65.90
2018-09-02T22:14:26.658Z,65.36
2018-09-02T22:16:56.168Z,65.44
2018-09-02T22:19:28.792Z,66.25
2018-09-02T22:21:59.160Z,66.15
2018-09-02T22:24:30.836Z,66.60
2018-09-02T22:27:00.634Z,66.69
2018-09-02T22:29:30.507Z,66.56
2018-09-02T22:32:14.416Z,66.40
2018-09-02T22:37:43.533Z,65.49
2018-09-02T22:40:16.763Z,65.50
2018-09-02T22:42:45.667Z,65.43
2018-09-02T22:45:14.770Z,65.42
2018-09-02T22:47:44.495Z,65.49
2018-09-02T22:50:24.937Z,65.35
2018-09-02T22:52:54.207Z,64.73
2018-09-02T22:55:23.709Z,64.60
2018-09-02T22:57:53.589Z,65.40
2018-09-02T23:00:22.869Z,65.22
2018-09-02T23:02:52.351Z,65.65
2018-09-02T23:05:23.243Z,65.76
2018-09-02T23:07:52.614Z,65.83
2018-09-02T23:10:21.566Z,66.02
2018-09-02T23:12:50.594Z,65.57
2018-09-02T23:15:19.499Z,66.00
2018-09-02T23:17:48.749Z,66.21
2018-09-02T23:20:17.736Z,66.53
2018-09-02T23:22:51.082Z,66.71
2018-09-02T23:25:20.126Z,66.51
2018-09-02T23:27:52.268Z,66.86
2018-09-02T23:30:25.944Z,67.00
2018-09-02T23:32:54.868Z,67.27
2018-09-02T23:35:23.766Z,67.17
2018-09-02T23:37:52.759Z,67.40
2018-09-02T23:40:21.703Z,67.92
2018-09-02T23:42:50.602Z,67.74
2018-09-02T23:45:19.558Z,67.75
2018-09-02T23:47:53.598Z,67.52
2018-09-02T23:50:22.693Z,68.07
2018-09-02T23:52:51.608Z,68.04
2018-09-02T23:55:20.550Z,68.55
2018-09-02T23:57:49.516Z,68.51
